Sousse, Tunisia
Current Conditions -  °F | °C
As of 10:30 AM on Thursday 23 Oct 2014 (Local Time) from DTMB Reporting Station
Few Clouds Few Clouds  
Wind Chill: 22°   Ceiling: Unl
Heat Index: 22°   Visibility: 6mi
Dew Point: 10°   Wind: 25mph
Humidity: 46%   Direction: 290°WNW
Pressure: 30"   Gusts: NA
Location:  35.82°N, 10.63°E
Report Text: DTMB 230930Z 29022KT 9999 FEW020 22/10 Q1016 NOSIG
Loading
Personal Weather Stations






























Interactive Weather Map
Tropical Storm Tracking
New forecast layout! Learn more

10-Day Weather Forecast

Advertisements
Track Severe Weather on mobile